createdAt,value
2022-12-20T00:01:30.087Z,13.65
2022-12-20T00:03:59.977Z,14.68
2022-12-20T00:06:26.916Z,18.00
2022-12-20T00:08:56.378Z,16.77
2022-12-20T00:11:24.580Z,14.32
2022-12-20T00:13:52.139Z,14.88
2022-12-20T00:16:24.858Z,16.63
2022-12-20T00:18:59.619Z,13.77
2022-12-20T00:21:30.296Z,14.27
2022-12-20T00:23:58.316Z,13.57
2022-12-20T00:26:30.466Z,11.85
2022-12-20T00:29:01.111Z,13.20
2022-12-20T00:31:31.194Z,15.32
2022-12-20T00:36:28.756Z,12.13
2022-12-20T00:38:56.892Z,15.55
2022-12-20T00:41:27.120Z,14.70
2022-12-20T00:48:54.741Z,14.05
2022-12-20T00:51:28.287Z,11.48
2022-12-20T00:53:55.998Z,11.40
2022-12-20T00:56:23.476Z,13.10
2022-12-20T00:58:54.331Z,12.30
2022-12-20T01:01:33.272Z,13.35
2022-12-20T01:04:00.983Z,12.38
2022-12-20T01:06:29.174Z,12.00
2022-12-20T01:08:57.055Z,13.45
2022-12-20T01:11:27.294Z,11.90
2022-12-20T01:13:56.817Z,12.40
2022-12-20T01:16:25.328Z,11.82
2022-12-20T01:18:52.677Z,14.10
2022-12-20T01:21:25.867Z,13.40
2022-12-20T01:23:53.271Z,12.52
2022-12-20T01:26:26.787Z,14.05
2022-12-20T01:28:56.178Z,10.95
2022-12-20T01:31:24.824Z,12.30
2022-12-20T01:33:55.821Z,16.40
2022-12-20T01:36:28.789Z,12.57
2022-12-20T01:39:02.853Z,15.98
2022-12-20T01:41:31.357Z,14.77
2022-12-20T01:44:01.872Z,10.10
2022-12-20T01:46:32.010Z,10.73
2022-12-20T01:49:08.582Z,13.00
2022-12-20T01:51:40.330Z,12.68
2022-12-20T01:54:12.731Z,15.73
2022-12-20T01:56:41.419Z,11.25
2022-12-20T01:59:08.804Z,13.00
2022-12-20T02:01:36.255Z,13.93
2022-12-20T02:04:03.717Z,8.77
2022-12-20T02:06:38.119Z,9.98
2022-12-20T02:09:08.961Z,10.75
2022-12-20T02:12:07.741Z,14.77
2022-12-20T02:14:45.283Z,8.60
2022-12-20T02:17:25.140Z,11.70
2022-12-20T02:20:26.293Z,11.95
2022-12-20T02:23:35.668Z,11.23
2022-12-20T02:26:40.263Z,9.52
2022-12-20T02:29:31.249Z,14.25
2022-12-20T02:32:10.057Z,11.10
2022-12-20T02:34:38.719Z,12.05
2022-12-20T02:37:06.349Z,9.07
2022-12-20T02:39:37.444Z,11.70
2022-12-20T02:42:09.027Z,11.05
2022-12-20T02:44:58.627Z,11.90
2022-12-20T02:47:38.773Z,14.05
2022-12-20T02:50:08.717Z,12.63
2022-12-20T02:52:36.566Z,9.13
2022-12-20T02:55:04.871Z,11.63
2022-12-20T02:58:00.096Z,12.20
2022-12-20T03:00:33.237Z,11.23
2022-12-20T03:03:19.863Z,9.80
2022-12-20T03:05:48.809Z,9.75
2022-12-20T03:08:19.401Z,9.88
2022-12-20T03:10:47.202Z,9.27
2022-12-20T03:13:14.196Z,13.00
2022-12-20T03:15:48.225Z,11.35
2022-12-20T03:18:15.752Z,14.68
2022-12-20T03:20:43.459Z,11.30
2022-12-20T03:23:10.592Z,12.63
2022-12-20T03:25:37.850Z,13.80
2022-12-20T03:28:06.212Z,11.13
2022-12-20T03:30:34.041Z,10.32
2022-12-20T03:33:01.239Z,13.18
2022-12-20T03:35:29.701Z,13.32
2022-12-20T03:37:59.360Z,8.50
2022-12-20T03:40:26.865Z,15.00
2022-12-20T03:42:54.051Z,11.93
2022-12-20T03:45:21.031Z,13.65
2022-12-20T03:47:49.080Z,10.75
2022-12-20T03:50:16.428Z,12.00
2022-12-20T03:52:44.381Z,13.77
2022-12-20T03:55:12.653Z,13.80
2022-12-20T03:57:44.219Z,11.02
2022-12-20T04:00:37.539Z,9.75
2022-12-20T04:03:24.922Z,14.60
2022-12-20T04:05:51.929Z,13.75
2022-12-20T04:08:18.888Z,13.48
2022-12-20T04:11:06.432Z,22.55
2022-12-20T04:13:37.651Z,11.50
2022-12-20T04:16:06.887Z,9.90
2022-12-20T04:18:34.438Z,14.80
2022-12-20T04:21:02.729Z,13.13
2022-12-20T04:23:35.224Z,10.98
2022-12-20T04:26:03.022Z,13.77
2022-12-20T04:28:32.700Z,11.23
2022-12-20T04:31:00.367Z,14.93
2022-12-20T04:33:30.059Z,13.80
2022-12-20T04:35:57.157Z,15.73
2022-12-20T04:38:25.149Z,13.32
2022-12-20T04:40:54.937Z,10.68
2022-12-20T04:43:24.196Z,14.95
2022-12-20T04:51:16.868Z,13.18
2022-12-20T04:53:47.986Z,12.63
2022-12-20T04:56:29.849Z,10.68
2022-12-20T04:59:04.069Z,12.20
2022-12-20T05:01:31.423Z,12.70
2022-12-20T05:03:58.697Z,15.05
2022-12-20T05:06:30.053Z,12.50
2022-12-20T05:08:57.433Z,10.75
2022-12-20T05:11:25.160Z,11.32
2022-12-20T05:13:52.460Z,13.35
2022-12-20T05:16:21.532Z,11.95
2022-12-20T05:18:49.742Z,11.25
2022-12-20T05:21:36.247Z,10.07
2022-12-20T05:24:23.665Z,11.85
2022-12-20T05:27:13.717Z,11.68
2022-12-20T05:29:41.204Z,9.98
2022-12-20T05:32:08.169Z,13.45
2022-12-20T05:34:39.395Z,13.00
2022-12-20T05:37:07.756Z,13.90
2022-12-20T05:39:37.830Z,10.65
2022-12-20T05:42:11.224Z,13.07
2022-12-20T05:44:38.279Z,11.82
2022-12-20T05:47:05.346Z,11.13
2022-12-20T05:49:35.265Z,11.18
2022-12-20T05:52:04.816Z,14.23
2022-12-20T05:54:32.071Z,11.63
2022-12-20T05:57:05.220Z,10.65
2022-12-20T05:59:39.320Z,13.68
2022-12-20T06:02:10.785Z,11.55
2022-12-20T06:04:38.761Z,8.40
2022-12-20T06:07:14.477Z,11.45
2022-12-20T06:09:44.449Z,11.32
2022-12-20T06:12:15.138Z,11.60
2022-12-20T06:14:43.569Z,9.98
2022-12-20T06:17:13.449Z,11.73
2022-12-20T06:19:44.031Z,14.23
2022-12-20T06:22:15.601Z,10.98
2022-12-20T06:24:48.993Z,9.52
2022-12-20T06:27:22.271Z,10.43
2022-12-20T06:29:57.720Z,9.77
2022-12-20T06:32:30.266Z,9.52
2022-12-20T06:34:57.487Z,11.13
2022-12-20T06:37:24.459Z,11.48
2022-12-20T06:39:51.516Z,10.98
2022-12-20T06:42:18.786Z,10.40
2022-12-20T06:44:47.158Z,12.75
2022-12-20T06:47:16.321Z,10.38
2022-12-20T06:49:43.349Z,15.02
2022-12-20T06:52:20.706Z,12.15
2022-12-20T06:54:50.694Z,12.15
2022-12-20T06:57:19.893Z,9.43
2022-12-20T06:59:48.224Z,11.13
2022-12-20T07:02:15.907Z,10.43
2022-12-20T07:04:44.200Z,12.15
2022-12-20T07:07:12.579Z,11.77
2022-12-20T07:09:41.440Z,11.40
2022-12-20T07:12:09.767Z,9.35
2022-12-20T07:14:37.001Z,9.35
2022-12-20T07:17:05.265Z,7.55
2022-12-20T07:19:32.226Z,9.23
2022-12-20T07:21:59.734Z,9.77
2022-12-20T07:24:26.676Z,12.38
2022-12-20T07:26:53.745Z,10.05
2022-12-20T07:29:20.669Z,11.38
2022-12-20T07:31:47.878Z,11.80
2022-12-20T07:34:14.856Z,10.80
2022-12-20T07:36:41.839Z,12.32
2022-12-20T07:39:09.176Z,10.25
2022-12-20T07:41:36.584Z,9.60
2022-12-20T07:44:27.279Z,10.70
2022-12-20T07:47:07.479Z,9.20
2022-12-20T07:49:34.718Z,10.65
2022-12-20T07:52:07.044Z,14.35
2022-12-20T07:54:52.855Z,12.77
2022-12-20T07:57:35.602Z,11.73
2022-12-20T08:00:07.939Z,9.75
2022-12-20T08:03:08.614Z,9.75
2022-12-20T08:05:46.419Z,10.55
2022-12-20T08:08:15.288Z,11.63
2022-12-20T08:10:42.860Z,11.15
2022-12-20T08:13:10.604Z,11.25
2022-12-20T08:15:38.435Z,9.75
2022-12-20T08:18:06.371Z,11.95
2022-12-20T08:20:34.163Z,7.75
2022-12-20T08:23:04.514Z,10.55
2022-12-20T08:25:40.973Z,11.68
2022-12-20T08:28:08.769Z,11.18
2022-12-20T08:30:35.780Z,10.98
2022-12-20T08:33:02.762Z,11.07
2022-12-20T08:35:29.690Z,7.95
2022-12-20T08:37:56.888Z,10.50
2022-12-20T08:40:23.907Z,12.95
2022-12-20T08:42:52.579Z,12.05
2022-12-20T08:45:20.020Z,9.48
2022-12-20T08:47:49.284Z,11.20
2022-12-20T08:50:16.512Z,10.75
2022-12-20T08:52:43.815Z,10.30
2022-12-20T08:55:12.916Z,10.13
2022-12-20T08:57:41.544Z,11.10
2022-12-20T09:00:12.285Z,10.52
2022-12-20T09:02:41.371Z,11.02
2022-12-20T09:05:11.832Z,11.93
2022-12-20T09:10:06.670Z,12.57
2022-12-20T09:12:37.449Z,9.68
2022-12-20T09:15:09.058Z,9.27
2022-12-20T09:17:35.968Z,9.43
2022-12-20T09:20:04.929Z,8.63
2022-12-20T09:22:31.899Z,9.77
2022-12-20T09:25:01.110Z,9.35
2022-12-20T09:27:28.224Z,11.73
2022-12-20T09:30:05.535Z,8.70
2022-12-20T09:32:35.138Z,7.97
2022-12-20T09:35:02.265Z,8.57
2022-12-20T09:37:32.901Z,8.73
2022-12-20T09:40:03.052Z,4.60
2022-12-20T09:42:44.050Z,11.20
2022-12-20T09:45:31.114Z,9.65
2022-12-20T09:48:00.840Z,7.97
2022-12-20T09:50:45.141Z,8.82
2022-12-20T09:53:33.522Z,9.02
2022-12-20T09:56:15.739Z,8.20
2022-12-20T09:58:56.733Z,9.48
2022-12-20T10:01:34.281Z,8.35
2022-12-20T10:04:38.464Z,6.20
2022-12-20T10:07:43.459Z,7.60
2022-12-20T10:10:35.694Z,6.60
2022-12-20T10:13:15.598Z,10.75
2022-12-20T10:16:08.856Z,9.43
2022-12-20T10:19:07.022Z,7.55
2022-12-20T10:22:12.735Z,6.50
2022-12-20T10:24:44.885Z,6.78
2022-12-20T10:27:16.364Z,9.82
2022-12-20T10:29:44.345Z,7.63
2022-12-20T10:32:23.257Z,8.05
2022-12-20T10:35:11.647Z,6.95
2022-12-20T10:37:41.285Z,7.40
2022-12-20T10:41:18.686Z,8.52
2022-12-20T10:43:27.822Z,7.13
2022-12-20T10:46:06.818Z,8.02
2022-12-20T10:48:41.052Z,6.25
2022-12-20T10:51:16.303Z,8.25
2022-12-20T10:54:23.667Z,7.50
2022-12-20T10:57:28.467Z,7.78
2022-12-20T11:00:13.694Z,10.77
2022-12-20T11:02:42.889Z,7.30
2022-12-20T11:05:14.579Z,8.48
2022-12-20T11:11:20.263Z,9.68
2022-12-20T11:13:51.664Z,7.50
2022-12-20T11:16:25.417Z,6.60
2022-12-20T11:19:20.416Z,6.53
2022-12-20T11:25:06.888Z,8.52
2022-12-20T11:27:51.441Z,8.00
2022-12-20T11:30:52.871Z,8.00
2022-12-20T11:33:51.209Z,7.53
2022-12-20T11:36:36.482Z,7.20
2022-12-20T11:39:19.996Z,9.07
2022-12-20T11:42:29.197Z,8.20
2022-12-20T11:45:15.416Z,11.80
2022-12-20T11:48:01.198Z,10.32
2022-12-20T11:50:42.702Z,10.80
2022-12-20T11:53:38.573Z,8.35
2022-12-20T11:59:27.814Z,9.23
2022-12-20T12:02:15.185Z,8.18
2022-12-20T12:05:02.824Z,10.30
2022-12-20T12:07:52.793Z,36.60
2022-12-20T12:10:20.725Z,10.88
2022-12-20T12:13:09.750Z,9.80
2022-12-20T12:16:01.671Z,8.60
2022-12-20T12:18:33.976Z,8.30
2022-12-20T12:21:09.566Z,8.48
2022-12-20T12:23:49.109Z,9.65
2022-12-20T12:26:25.097Z,8.52
2022-12-20T12:29:04.241Z,10.38
2022-12-20T12:32:27.547Z,9.38
2022-12-20T12:35:13.932Z,7.80
2022-12-20T12:38:03.562Z,8.65
2022-12-20T12:41:02.972Z,8.63
2022-12-20T12:43:49.501Z,9.93
2022-12-20T12:46:18.566Z,10.82
2022-12-20T12:49:00.026Z,8.98
2022-12-20T12:51:34.997Z,6.88
2022-12-20T12:54:24.756Z,10.60
2022-12-20T12:56:55.689Z,8.18
2022-12-20T12:59:33.781Z,8.30
2022-12-20T13:02:21.002Z,10.88
2022-12-20T13:05:05.102Z,8.85
2022-12-20T13:07:47.611Z,8.27
2022-12-20T13:10:20.246Z,29.63
2022-12-20T13:12:50.332Z,8.95
2022-12-20T13:15:20.304Z,8.65
2022-12-20T13:20:25.888Z,7.18
2022-12-20T13:23:08.262Z,9.07
2022-12-20T13:25:37.939Z,8.60
2022-12-20T13:28:19.707Z,7.22
2022-12-20T13:31:09.883Z,13.45
2022-12-20T13:34:00.809Z,8.05
2022-12-20T13:36:37.209Z,13.27
2022-12-20T13:39:24.455Z,11.90
2022-12-20T13:42:06.334Z,6.50
2022-12-20T13:44:40.391Z,7.60
2022-12-20T13:47:19.277Z,8.50
2022-12-20T13:49:47.469Z,12.07
2022-12-20T13:52:32.993Z,7.45
2022-12-20T13:55:08.018Z,9.48
2022-12-20T13:57:47.873Z,9.27
2022-12-20T14:00:23.692Z,9.82
2022-12-20T14:02:51.747Z,8.85
2022-12-20T14:05:39.763Z,6.60
2022-12-20T14:08:20.838Z,8.77
2022-12-20T14:10:48.468Z,7.82
2022-12-20T14:13:27.158Z,7.32
2022-12-20T14:16:14.264Z,8.27
2022-12-20T14:18:41.842Z,9.77
2022-12-20T14:21:10.220Z,11.25
2022-12-20T14:23:41.580Z,8.63
2022-12-20T14:26:18.504Z,6.57
2022-12-20T14:28:49.230Z,6.40
2022-12-20T14:31:30.350Z,8.10
2022-12-20T14:34:13.247Z,8.63
2022-12-20T14:36:42.746Z,7.55
2022-12-20T14:39:33.582Z,8.63
2022-12-20T14:42:00.549Z,8.77
2022-12-20T14:44:30.722Z,8.52
2022-12-20T14:49:31.569Z,7.75
2022-12-20T14:52:12.030Z,7.95
2022-12-20T14:55:09.560Z,8.10
2022-12-20T14:57:44.839Z,7.57
2022-12-20T15:00:18.169Z,6.28
2022-12-20T15:03:00.850Z,9.48
2022-12-20T15:05:36.434Z,7.30
2022-12-20T15:08:14.012Z,8.43
2022-12-20T15:10:44.319Z,8.82
2022-12-20T15:13:29.505Z,9.32
2022-12-20T15:16:03.336Z,11.70
2022-12-20T15:18:30.790Z,9.63
2022-12-20T15:21:05.096Z,12.32
2022-12-20T15:23:35.028Z,11.65
2022-12-20T15:28:29.814Z,11.45
2022-12-20T15:30:57.348Z,10.15
2022-12-20T15:33:27.845Z,10.38
2022-12-20T15:35:55.078Z,11.88
2022-12-20T15:38:40.493Z,12.02
2022-12-20T15:41:20.183Z,12.95
2022-12-20T15:43:52.250Z,12.15
2022-12-20T15:46:19.273Z,11.70
2022-12-20T15:48:47.982Z,12.90
2022-12-20T15:51:40.999Z,11.70
2022-12-20T15:54:24.914Z,10.73
2022-12-20T15:56:52.398Z,12.10
2022-12-20T15:59:57.429Z,12.13
2022-12-20T16:02:41.857Z,13.43
2022-12-20T16:05:11.913Z,14.15
2022-12-20T16:07:39.478Z,13.80
2022-12-20T16:10:12.356Z,12.63
2022-12-20T16:12:42.051Z,12.60
2022-12-20T16:15:20.596Z,14.43
2022-12-20T16:17:48.033Z,13.00
2022-12-20T16:20:17.460Z,12.90
2022-12-20T16:22:44.708Z,15.73
2022-12-20T16:25:25.800Z,14.25
2022-12-20T16:27:53.399Z,12.70
2022-12-20T16:30:20.404Z,12.95
2022-12-20T16:32:47.340Z,14.23
2022-12-20T16:35:22.881Z,12.40
2022-12-20T16:37:49.742Z,16.20
2022-12-20T16:40:16.636Z,16.58
2022-12-20T16:42:43.528Z,14.60
2022-12-20T16:45:23.181Z,14.52
2022-12-20T16:47:50.867Z,17.02
2022-12-20T16:50:19.207Z,19.40
2022-12-20T16:52:52.349Z,15.95
2022-12-20T16:55:26.936Z,17.42
2022-12-20T16:57:54.379Z,14.05
2022-12-20T17:00:28.291Z,18.85
2022-12-20T17:02:56.175Z,15.73
2022-12-20T17:05:35.262Z,15.57
2022-12-20T17:10:46.550Z,16.92
2022-12-20T17:13:13.937Z,19.55
2022-12-20T17:15:42.811Z,19.25
2022-12-20T17:18:17.345Z,19.48
2022-12-20T17:20:44.382Z,24.60
2022-12-20T17:26:00.239Z,16.23
2022-12-20T17:28:27.482Z,16.73
2022-12-20T17:30:54.450Z,19.27
2022-12-20T17:33:23.925Z,21.27
2022-12-20T17:35:50.866Z,18.40
2022-12-20T17:38:18.230Z,20.20
2022-12-20T17:40:45.168Z,19.08
2022-12-20T17:43:15.307Z,18.17
2022-12-20T17:45:42.334Z,18.05
2022-12-20T17:48:09.337Z,20.95
2022-12-20T17:50:36.364Z,19.38
2022-12-20T17:53:04.013Z,22.30
2022-12-20T17:55:34.105Z,21.60
2022-12-20T17:58:01.151Z,19.20
2022-12-20T18:00:38.837Z,20.02
2022-12-20T18:03:30.192Z,20.77
2022-12-20T18:06:03.811Z,18.42
2022-12-20T18:08:35.303Z,21.05
2022-12-20T18:11:15.514Z,21.00
2022-12-20T18:20:40.222Z,22.10
2022-12-20T18:23:07.572Z,20.23
2022-12-20T18:25:48.668Z,21.67
2022-12-20T18:28:37.024Z,22.17
2022-12-20T18:31:05.962Z,19.20
2022-12-20T18:33:32.951Z,22.83
2022-12-20T18:36:04.309Z,30.02
2022-12-20T18:38:32.725Z,29.90
2022-12-20T18:41:05.052Z,24.15
2022-12-20T18:43:33.444Z,25.90
2022-12-20T18:46:09.308Z,24.45
2022-12-20T18:48:36.494Z,25.10
2022-12-20T18:51:23.322Z,27.38
2022-12-20T18:54:01.948Z,24.00
2022-12-20T18:56:31.236Z,27.35
2022-12-20T18:59:10.333Z,23.77
2022-12-20T19:01:39.750Z,25.77
2022-12-20T19:04:08.020Z,28.10
2022-12-20T19:06:38.592Z,16.92
2022-12-20T19:09:13.988Z,23.10
2022-12-20T19:11:49.243Z,24.58
2022-12-20T19:14:20.310Z,24.40
2022-12-20T19:16:49.821Z,22.63
2022-12-20T19:19:17.610Z,29.95
2022-12-20T19:21:45.487Z,26.92
2022-12-20T19:24:12.655Z,26.05
2022-12-20T19:26:41.886Z,23.88
2022-12-20T19:29:09.006Z,24.27
2022-12-20T19:31:37.911Z,21.92
2022-12-20T19:34:10.643Z,21.15
2022-12-20T19:36:43.895Z,24.15
2022-12-20T19:39:18.025Z,25.00
2022-12-20T19:41:54.922Z,24.20
2022-12-20T19:44:27.429Z,24.38
2022-12-20T19:46:57.046Z,28.35
2022-12-20T19:49:24.385Z,29.83
2022-12-20T19:51:51.320Z,27.42
2022-12-20T19:54:18.304Z,24.92
2022-12-20T19:56:45.205Z,28.25
2022-12-20T19:59:16.222Z,25.15
2022-12-20T20:01:44.201Z,24.83
2022-12-20T20:04:11.170Z,25.05
2022-12-20T20:06:40.275Z,24.15
2022-12-20T20:09:08.986Z,24.40
2022-12-20T20:11:36.475Z,22.60
2022-12-20T20:14:04.140Z,20.83
2022-12-20T20:16:31.375Z,24.52
2022-12-20T20:18:58.806Z,31.63
2022-12-20T20:21:26.077Z,22.98
2022-12-20T20:23:54.434Z,26.13
2022-12-20T20:26:24.585Z,26.85
2022-12-20T20:28:52.366Z,23.85
2022-12-20T20:31:21.133Z,28.38
2022-12-20T20:33:48.593Z,26.98
2022-12-20T20:36:20.800Z,19.92
2022-12-20T20:38:48.721Z,20.25
2022-12-20T20:41:16.033Z,25.38
2022-12-20T20:43:43.948Z,20.98
2022-12-20T20:46:13.368Z,19.77
2022-12-20T20:48:40.484Z,24.20
2022-12-20T20:51:07.608Z,23.20
2022-12-20T20:53:35.241Z,21.05
2022-12-20T20:56:06.146Z,22.75
2022-12-20T20:58:34.703Z,19.42
2022-12-20T21:01:04.794Z,24.10
2022-12-20T21:03:32.505Z,25.23
2022-12-20T21:08:48.761Z,22.13
2022-12-20T21:11:17.268Z,21.23
2022-12-20T21:13:46.129Z,21.83
2022-12-20T21:16:21.192Z,24.30
2022-12-20T21:18:52.544Z,26.30
2022-12-20T21:21:20.710Z,21.50
2022-12-20T21:23:48.496Z,20.77
2022-12-20T21:26:17.880Z,22.48
2022-12-20T21:28:46.796Z,22.02
2022-12-20T21:31:20.126Z,21.00
2022-12-20T21:33:47.302Z,20.90
2022-12-20T21:36:16.971Z,27.10
2022-12-20T21:38:56.414Z,26.17
2022-12-20T21:43:59.510Z,20.67
2022-12-20T21:46:28.618Z,20.02
2022-12-20T21:48:55.786Z,19.17
2022-12-20T21:51:24.644Z,19.17
2022-12-20T21:53:53.599Z,18.83
2022-12-20T21:56:22.275Z,17.23
2022-12-20T21:58:50.732Z,18.23
2022-12-20T22:01:20.831Z,18.77
2022-12-20T22:06:19.110Z,16.77
2022-12-20T22:08:46.776Z,16.15
2022-12-20T22:11:19.212Z,20.08
2022-12-20T22:13:47.227Z,17.33
2022-12-20T22:16:25.656Z,21.17
2022-12-20T22:18:54.925Z,19.67
2022-12-20T22:21:25.251Z,20.67
2022-12-20T22:23:54.505Z,22.58
2022-12-20T22:26:23.848Z,20.70
2022-12-20T22:28:53.420Z,21.15
2022-12-20T22:31:21.487Z,17.60
2022-12-20T22:33:49.372Z,18.05
2022-12-20T22:36:17.101Z,18.13
2022-12-20T22:38:44.857Z,18.85
2022-12-20T22:41:17.953Z,17.83
2022-12-20T22:43:46.258Z,16.80
2022-12-20T22:46:14.865Z,19.88
2022-12-20T22:48:42.605Z,16.83
2022-12-20T22:51:15.219Z,18.63
2022-12-20T22:53:42.584Z,17.85
2022-12-20T22:56:10.341Z,18.27
2022-12-20T22:58:38.286Z,16.20
2022-12-20T23:01:08.381Z,17.58
2022-12-20T23:03:39.323Z,19.75
2022-12-20T23:06:08.572Z,19.15
2022-12-20T23:08:37.079Z,20.23
2022-12-20T23:11:34.206Z,18.17
2022-12-20T23:14:19.819Z,16.90
2022-12-20T23:16:47.084Z,21.35
2022-12-20T23:19:14.180Z,18.58
2022-12-20T23:21:59.460Z,19.17
2022-12-20T23:24:26.769Z,19.75
2022-12-20T23:26:56.646Z,17.48
2022-12-20T23:29:24.146Z,17.98
2022-12-20T23:31:51.561Z,17.90
2022-12-20T23:34:18.664Z,20.98
2022-12-20T23:36:45.672Z,20.13
2022-12-20T23:39:13.797Z,17.98
2022-12-20T23:41:43.155Z,20.10
2022-12-20T23:44:15.369Z,18.83
2022-12-20T23:46:42.384Z,16.50
2022-12-20T23:49:09.504Z,19.40
2022-12-20T23:51:36.388Z,16.83
2022-12-20T23:54:03.608Z,19.55
2022-12-20T23:56:33.406Z,18.75
2022-12-20T23:59:01.071Z,16.80
